sensor_id;sensor_type;location;lat;lon;timestamp;temperature;humidity
9544;DHT22;30418;51.45933468;7.33152330;2022-09-12T00:01:40;19.60;64.80
9544;DHT22;30418;51.45933468;7.33152330;2022-09-12T00:04:10;19.60;64.80
9544;DHT22;30418;51.45933468;7.33152330;2022-09-12T00:06:39;19.60;64.80
9544;DHT22;30418;51.45933468;7.33152330;2022-09-12T00:09:11;19.60;64.80
9544;DHT22;30418;51.45933468;7.33152330;2022-09-12T00:11:42;19.60;64.80
9544;DHT22;30418;51.45933468;7.33152330;2022-09-12T00:14:15;19.60;65.00
9544;DHT22;30418;51.45933468;7.33152330;2022-09-12T00:16:45;19.60;64.90
9544;DHT22;30418;51.45933468;7.33152330;2022-09-12T00:19:14;19.50;64.70
9544;DHT22;30418;51.45933468;7.33152330;2022-09-12T00:21:43;19.50;64.70
9544;DHT22;30418;51.45933468;7.33152330;2022-09-12T00:24:12;19.50;64.70
9544;DHT22;30418;51.45933468;7.33152330;2022-09-12T00:26:41;19.50;64.70
9544;DHT22;30418;51.45933468;7.33152330;2022-09-12T00:29:15;19.50;64.70
9544;DHT22;30418;51.45933468;7.33152330;2022-09-12T00:31:46;19.50;64.70
9544;DHT22;30418;51.45933468;7.33152330;2022-09-12T00:34:15;19.50;64.80
9544;DHT22;30418;51.45933468;7.33152330;2022-09-12T00:36:44;19.40;64.80
9544;DHT22;30418;51.45933468;7.33152330;2022-09-12T00:39:14;19.40;64.80
9544;DHT22;30418;51.45933468;7.33152330;2022-09-12T00:41:44;19.40;64.70
9544;DHT22;30418;51.45933468;7.33152330;2022-09-12T00:44:44;19.40;64.70
9544;DHT22;30418;51.45933468;7.33152330;2022-09-12T00:47:18;19.40;64.80
9544;DHT22;30418;51.45933468;7.33152330;2022-09-12T00:49:54;19.40;64.80
9544;DHT22;30418;51.45933468;7.33152330;2022-09-12T00:52:30;19.30;64.70
9544;DHT22;30418;51.45933468;7.33152330;2022-09-12T00:55:04;19.40;64.70
9544;DHT22;30418;51.45933468;7.33152330;2022-09-12T00:57:40;19.40;64.70
9544;DHT22;30418;51.45933468;7.33152330;2022-09-12T01:00:16;19.30;64.60
9544;DHT22;30418;51.45933468;7.33152330;2022-09-12T01:02:51;19.30;64.60
9544;DHT22;30418;51.45933468;7.33152330;2022-09-12T01:05:22;19.30;64.60
9544;DHT22;30418;51.45933468;7.33152330;2022-09-12T01:07:53;19.30;64.60
9544;DHT22;30418;51.45933468;7.33152330;2022-09-12T01:10:24;19.20;64.50
9544;DHT22;30418;51.45933468;7.33152330;2022-09-12T01:12:52;19.30;64.60
9544;DHT22;30418;51.45933468;7.33152330;2022-09-12T01:15:22;19.20;64.60
9544;DHT22;30418;51.45933468;7.33152330;2022-09-12T01:18:05;19.20;64.60
9544;DHT22;30418;51.45933468;7.33152330;2022-09-12T01:20:48;19.20;64.60
9544;DHT22;30418;51.45933468;7.33152330;2022-09-12T01:27:43;19.20;64.60
9544;DHT22;30418;51.45933468;7.33152330;2022-09-12T01:30:39;19.20;64.60
9544;DHT22;30418;51.45933468;7.33152330;2022-09-12T01:33:27;19.10;64.60
9544;DHT22;30418;51.45933468;7.33152330;2022-09-12T01:36:20;19.10;64.60
9544;DHT22;30418;51.45933468;7.33152330;2022-09-12T01:39:00;19.10;64.60
9544;DHT22;30418;51.45933468;7.33152330;2022-09-12T01:41:39;19.10;64.60
9544;DHT22;30418;51.45933468;7.33152330;2022-09-12T01:44:17;19.10;64.70
9544;DHT22;30418;51.45933468;7.33152330;2022-09-12T01:46:54;19.00;64.60
9544;DHT22;30418;51.45933468;7.33152330;2022-09-12T01:49:30;19.10;64.70
9544;DHT22;30418;51.45933468;7.33152330;2022-09-12T01:52:03;19.10;64.70
9544;DHT22;30418;51.45933468;7.33152330;2022-09-12T01:54:42;19.00;64.60
9544;DHT22;30418;51.45933468;7.33152330;2022-09-12T01:57:18;19.00;64.70
9544;DHT22;30418;51.45933468;7.33152330;2022-09-12T01:59:53;19.00;64.60
9544;DHT22;30418;51.45933468;7.33152330;2022-09-12T02:02:30;19.00;64.60
9544;DHT22;30418;51.45933468;7.33152330;2022-09-12T02:05:04;19.00;64.60
9544;DHT22;30418;51.45933468;7.33152330;2022-09-12T02:07:38;19.00;64.60
9544;DHT22;30418;51.45933468;7.33152330;2022-09-12T02:10:11;18.90;64.50
9544;DHT22;30418;51.45933468;7.33152330;2022-09-12T02:12:45;18.90;64.50
9544;DHT22;30418;51.45933468;7.33152330;2022-09-12T02:15:18;18.90;64.50
9544;DHT22;30418;51.45933468;7.33152330;2022-09-12T02:17:51;18.90;64.60
9544;DHT22;30418;51.45933468;7.33152330;2022-09-12T02:20:23;18.90;64.60
9544;DHT22;30418;51.45933468;7.33152330;2022-09-12T02:23:17;18.90;64.60
9544;DHT22;30418;51.45933468;7.33152330;2022-09-12T02:25:51;18.90;64.60
9544;DHT22;30418;51.45933468;7.33152330;2022-09-12T02:28:24;18.90;64.60
9544;DHT22;30418;51.45933468;7.33152330;2022-09-12T02:31:00;18.90;64.60
9544;DHT22;30418;51.45933468;7.33152330;2022-09-12T02:33:44;18.90;64.70
9544;DHT22;30418;51.45933468;7.33152330;2022-09-12T02:36:22;18.90;64.60
9544;DHT22;30418;51.45933468;7.33152330;2022-09-12T02:38:58;18.90;64.70
9544;DHT22;30418;51.45933468;7.33152330;2022-09-12T02:41:27;18.80;64.50
9544;DHT22;30418;51.45933468;7.33152330;2022-09-12T02:43:56;18.80;64.50
9544;DHT22;30418;51.45933468;7.33152330;2022-09-12T02:46:28;18.80;64.50
9544;DHT22;30418;51.45933468;7.33152330;2022-09-12T02:49:02;18.80;64.50
9544;DHT22;30418;51.45933468;7.33152330;2022-09-12T02:51:31;18.80;64.50
9544;DHT22;30418;51.45933468;7.33152330;2022-09-12T02:54:00;18.80;64.50
9544;DHT22;30418;51.45933468;7.33152330;2022-09-12T02:56:30;18.70;64.40
9544;DHT22;30418;51.45933468;7.33152330;2022-09-12T02:59:01;18.70;64.40
9544;DHT22;30418;51.45933468;7.33152330;2022-09-12T03:01:53;18.70;64.50
9544;DHT22;30418;51.45933468;7.33152330;2022-09-12T03:04:58;18.70;64.40
9544;DHT22;30418;51.45933468;7.33152330;2022-09-12T03:07:52;18.70;64.40
9544;DHT22;30418;51.45933468;7.33152330;2022-09-12T03:10:35;18.70;64.40
9544;DHT22;30418;51.45933468;7.33152330;2022-09-12T03:13:16;18.70;64.40
9544;DHT22;30418;51.45933468;7.33152330;2022-09-12T03:15:55;18.70;64.40
9544;DHT22;30418;51.45933468;7.33152330;2022-09-12T03:18:41;18.70;64.30
9544;DHT22;30418;51.45933468;7.33152330;2022-09-12T03:21:22;18.60;64.30
9544;DHT22;30418;51.45933468;7.33152330;2022-09-12T03:24:08;18.60;64.30
9544;DHT22;30418;51.45933468;7.33152330;2022-09-12T03:26:44;18.60;64.30
9544;DHT22;30418;51.45933468;7.33152330;2022-09-12T03:29:15;18.60;64.30
9544;DHT22;30418;51.45933468;7.33152330;2022-09-12T03:31:51;18.60;64.30
9544;DHT22;30418;51.45933468;7.33152330;2022-09-12T03:34:22;18.60;64.30
9544;DHT22;30418;51.45933468;7.33152330;2022-09-12T03:36:54;18.60;64.30
9544;DHT22;30418;51.45933468;7.33152330;2022-09-12T03:39:24;18.60;64.30
9544;DHT22;30418;51.45933468;7.33152330;2022-09-12T03:41:55;18.60;64.30
9544;DHT22;30418;51.45933468;7.33152330;2022-09-12T03:44:25;18.60;64.20
9544;DHT22;30418;51.45933468;7.33152330;2022-09-12T03:46:54;18.50;64.10
9544;DHT22;30418;51.45933468;7.33152330;2022-09-12T03:49:24;18.50;64.20
9544;DHT22;30418;51.45933468;7.33152330;2022-09-12T03:51:55;18.50;64.20
9544;DHT22;30418;51.45933468;7.33152330;2022-09-12T03:54:25;18.50;64.20
9544;DHT22;30418;51.45933468;7.33152330;2022-09-12T03:56:55;18.50;64.20
9544;DHT22;30418;51.45933468;7.33152330;2022-09-12T03:59:24;18.50;64.20
9544;DHT22;30418;51.45933468;7.33152330;2022-09-12T04:01:52;18.50;64.30
9544;DHT22;30418;51.45933468;7.33152330;2022-09-12T04:04:23;18.50;64.20
9544;DHT22;30418;51.45933468;7.33152330;2022-09-12T04:06:52;18.50;64.20
9544;DHT22;30418;51.45933468;7.33152330;2022-09-12T04:09:23;18.40;64.10
9544;DHT22;30418;51.45933468;7.33152330;2022-09-12T04:11:52;18.40;64.10
9544;DHT22;30418;51.45933468;7.33152330;2022-09-12T04:14:21;18.40;64.10
9544;DHT22;30418;51.45933468;7.33152330;2022-09-12T04:16:50;18.40;64.10
9544;DHT22;30418;51.45933468;7.33152330;2022-09-12T04:19:19;18.40;64.10
9544;DHT22;30418;51.45933468;7.33152330;2022-09-12T04:21:48;18.40;64.10
9544;DHT22;30418;51.45933468;7.33152330;2022-09-12T04:24:17;18.40;64.10
9544;DHT22;30418;51.45933468;7.33152330;2022-09-12T04:26:47;18.40;64.10
9544;DHT22;30418;51.45933468;7.33152330;2022-09-12T04:29:17;18.30;64.00
9544;DHT22;30418;51.45933468;7.33152330;2022-09-12T04:31:46;18.30;64.00
9544;DHT22;30418;51.45933468;7.33152330;2022-09-12T04:34:15;18.30;64.00
9544;DHT22;30418;51.45933468;7.33152330;2022-09-12T04:36:44;18.30;64.00
9544;DHT22;30418;51.45933468;7.33152330;2022-09-12T04:39:13;18.30;64.00
9544;DHT22;30418;51.45933468;7.33152330;2022-09-12T04:41:42;18.30;64.00
9544;DHT22;30418;51.45933468;7.33152330;2022-09-12T04:44:13;18.30;64.00
9544;DHT22;30418;51.45933468;7.33152330;2022-09-12T04:46:44;18.30;64.10
9544;DHT22;30418;51.45933468;7.33152330;2022-09-12T04:49:14;18.30;64.10
9544;DHT22;30418;51.45933468;7.33152330;2022-09-12T04:51:45;18.30;64.10
9544;DHT22;30418;51.45933468;7.33152330;2022-09-12T04:54:15;18.20;64.10
9544;DHT22;30418;51.45933468;7.33152330;2022-09-12T04:56:46;18.20;64.10
9544;DHT22;30418;51.45933468;7.33152330;2022-09-12T04:59:19;18.20;64.20
9544;DHT22;30418;51.45933468;7.33152330;2022-09-12T05:01:49;18.20;64.30
9544;DHT22;30418;51.45933468;7.33152330;2022-09-12T05:04:17;18.20;64.40
9544;DHT22;30418;51.45933468;7.33152330;2022-09-12T05:06:46;18.20;64.30
9544;DHT22;30418;51.45933468;7.33152330;2022-09-12T05:09:15;18.20;64.40
9544;DHT22;30418;51.45933468;7.33152330;2022-09-12T05:11:44;18.20;64.40
9544;DHT22;30418;51.45933468;7.33152330;2022-09-12T05:14:32;18.20;64.40
9544;DHT22;30418;51.45933468;7.33152330;2022-09-12T05:17:02;18.20;64.40
9544;DHT22;30418;51.45933468;7.33152330;2022-09-12T05:19:32;18.20;64.40
9544;DHT22;30418;51.45933468;7.33152330;2022-09-12T05:22:01;18.20;64.40
9544;DHT22;30418;51.45933468;7.33152330;2022-09-12T05:24:31;18.20;64.40
9544;DHT22;30418;51.45933468;7.33152330;2022-09-12T05:26:59;18.20;64.40
9544;DHT22;30418;51.45933468;7.33152330;2022-09-12T05:29:29;18.20;64.40
9544;DHT22;30418;51.45933468;7.33152330;2022-09-12T05:32:00;18.20;64.50
9544;DHT22;30418;51.45933468;7.33152330;2022-09-12T05:34:29;18.20;64.60
9544;DHT22;30418;51.45933468;7.33152330;2022-09-12T05:36:57;18.20;64.60
9544;DHT22;30418;51.45933468;7.33152330;2022-09-12T05:39:29;18.20;64.70
9544;DHT22;30418;51.45933468;7.33152330;2022-09-12T05:42:29;18.20;64.80
9544;DHT22;30418;51.45933468;7.33152330;2022-09-12T05:44:58;18.20;64.70
9544;DHT22;30418;51.45933468;7.33152330;2022-09-12T05:47:28;18.20;64.80
9544;DHT22;30418;51.45933468;7.33152330;2022-09-12T05:49:56;18.20;64.90
9544;DHT22;30418;51.45933468;7.33152330;2022-09-12T05:52:26;18.20;64.90
9544;DHT22;30418;51.45933468;7.33152330;2022-09-12T05:54:54;18.20;65.00
9544;DHT22;30418;51.45933468;7.33152330;2022-09-12T05:57:23;18.30;65.10
9544;DHT22;30418;51.45933468;7.33152330;2022-09-12T05:59:52;18.30;65.10
9544;DHT22;30418;51.45933468;7.33152330;2022-09-12T06:02:20;18.30;65.20
9544;DHT22;30418;51.45933468;7.33152330;2022-09-12T06:04:50;18.30;65.20
9544;DHT22;30418;51.45933468;7.33152330;2022-09-12T06:07:19;18.30;65.30
9544;DHT22;30418;51.45933468;7.33152330;2022-09-12T06:09:48;18.30;65.30
9544;DHT22;30418;51.45933468;7.33152330;2022-09-12T06:12:17;18.30;65.30
9544;DHT22;30418;51.45933468;7.33152330;2022-09-12T06:14:46;18.40;65.40
9544;DHT22;30418;51.45933468;7.33152330;2022-09-12T06:17:15;18.30;65.50
9544;DHT22;30418;51.45933468;7.33152330;2022-09-12T06:19:44;18.40;65.60
9544;DHT22;30418;51.45933468;7.33152330;2022-09-12T06:22:15;18.40;65.80
9544;DHT22;30418;51.45933468;7.33152330;2022-09-12T06:24:45;18.40;65.90
9544;DHT22;30418;51.45933468;7.33152330;2022-09-12T06:27:14;18.40;65.90
9544;DHT22;30418;51.45933468;7.33152330;2022-09-12T06:29:42;18.50;66.10
9544;DHT22;30418;51.45933468;7.33152330;2022-09-12T06:32:11;18.50;66.20
9544;DHT22;30418;51.45933468;7.33152330;2022-09-12T06:34:40;18.50;66.30
9544;DHT22;30418;51.45933468;7.33152330;2022-09-12T06:37:09;18.60;66.40
9544;DHT22;30418;51.45933468;7.33152330;2022-09-12T06:39:39;18.60;66.60
9544;DHT22;30418;51.45933468;7.33152330;2022-09-12T06:42:07;18.70;66.80
9544;DHT22;30418;51.45933468;7.33152330;2022-09-12T06:44:36;18.70;66.70
9544;DHT22;30418;51.45933468;7.33152330;2022-09-12T06:47:05;18.70;66.70
9544;DHT22;30418;51.45933468;7.33152330;2022-09-12T06:49:36;18.80;66.80
9544;DHT22;30418;51.45933468;7.33152330;2022-09-12T06:52:05;18.80;66.80
9544;DHT22;30418;51.45933468;7.33152330;2022-09-12T06:54:34;18.80;66.80
9544;DHT22;30418;51.45933468;7.33152330;2022-09-12T06:57:04;18.90;66.90
9544;DHT22;30418;51.45933468;7.33152330;2022-09-12T06:59:33;18.90;66.70
9544;DHT22;30418;51.45933468;7.33152330;2022-09-12T07:02:02;18.90;66.70
9544;DHT22;30418;51.45933468;7.33152330;2022-09-12T07:04:31;19.00;66.80
9544;DHT22;30418;51.45933468;7.33152330;2022-09-12T07:07:02;19.00;66.80
9544;DHT22;30418;51.45933468;7.33152330;2022-09-12T07:09:31;19.00;66.80
9544;DHT22;30418;51.45933468;7.33152330;2022-09-12T07:12:00;19.00;66.80
9544;DHT22;30418;51.45933468;7.33152330;2022-09-12T07:14:31;19.10;67.00
9544;DHT22;30418;51.45933468;7.33152330;2022-09-12T07:17:00;19.10;67.10
9544;DHT22;30418;51.45933468;7.33152330;2022-09-12T07:19:29;19.10;67.10
9544;DHT22;30418;51.45933468;7.33152330;2022-09-12T07:21:57;19.20;67.10
9544;DHT22;30418;51.45933468;7.33152330;2022-09-12T07:24:26;19.20;67.20
9544;DHT22;30418;51.45933468;7.33152330;2022-09-12T07:26:54;19.20;67.20
9544;DHT22;30418;51.45933468;7.33152330;2022-09-12T07:29:23;19.30;67.50
9544;DHT22;30418;51.45933468;7.33152330;2022-09-12T07:32:05;19.30;67.50
9544;DHT22;30418;51.45933468;7.33152330;2022-09-12T07:34:35;19.30;67.60
9544;DHT22;30418;51.45933468;7.33152330;2022-09-12T07:37:03;19.40;67.50
9544;DHT22;30418;51.45933468;7.33152330;2022-09-12T07:39:32;19.40;67.60
9544;DHT22;30418;51.45933468;7.33152330;2022-09-12T07:42:01;19.40;67.70
9544;DHT22;30418;51.45933468;7.33152330;2022-09-12T07:44:29;19.50;67.70
9544;DHT22;30418;51.45933468;7.33152330;2022-09-12T07:46:58;19.60;67.80
9544;DHT22;30418;51.45933468;7.33152330;2022-09-12T07:49:29;19.60;68.40
9544;DHT22;30418;51.45933468;7.33152330;2022-09-12T07:51:57;19.60;67.90
9544;DHT22;30418;51.45933468;7.33152330;2022-09-12T07:54:26;19.60;67.80
9544;DHT22;30418;51.45933468;7.33152330;2022-09-12T07:56:56;19.60;67.90
9544;DHT22;30418;51.45933468;7.33152330;2022-09-12T07:59:24;19.70;68.00
9544;DHT22;30418;51.45933468;7.33152330;2022-09-12T08:02:14;19.70;67.90
9544;DHT22;30418;51.45933468;7.33152330;2022-09-12T08:04:45;19.80;68.10
9544;DHT22;30418;51.45933468;7.33152330;2022-09-12T08:07:14;19.80;67.90
9544;DHT22;30418;51.45933468;7.33152330;2022-09-12T08:09:45;19.80;67.80
9544;DHT22;30418;51.45933468;7.33152330;2022-09-12T08:12:15;19.80;67.90
9544;DHT22;30418;51.45933468;7.33152330;2022-09-12T08:14:46;19.90;69.00
9544;DHT22;30418;51.45933468;7.33152330;2022-09-12T08:17:15;19.90;68.20
9544;DHT22;30418;51.45933468;7.33152330;2022-09-12T08:19:45;19.90;68.30
9544;DHT22;30418;51.45933468;7.33152330;2022-09-12T08:22:14;20.00;68.40
9544;DHT22;30418;51.45933468;7.33152330;2022-09-12T08:24:42;20.00;68.50
9544;DHT22;30418;51.45933468;7.33152330;2022-09-12T08:27:11;20.10;68.60
9544;DHT22;30418;51.45933468;7.33152330;2022-09-12T08:29:40;20.10;68.50
9544;DHT22;30418;51.45933468;7.33152330;2022-09-12T08:32:09;20.10;68.50
9544;DHT22;30418;51.45933468;7.33152330;2022-09-12T08:34:38;20.20;68.70
9544;DHT22;30418;51.45933468;7.33152330;2022-09-12T08:37:08;20.30;68.70
9544;DHT22;30418;51.45933468;7.33152330;2022-09-12T08:39:37;20.30;68.70
9544;DHT22;30418;51.45933468;7.33152330;2022-09-12T08:42:08;20.30;68.60
9544;DHT22;30418;51.45933468;7.33152330;2022-09-12T08:44:58;20.40;68.80
9544;DHT22;30418;51.45933468;7.33152330;2022-09-12T08:47:39;20.40;68.80
9544;DHT22;30418;51.45933468;7.33152330;2022-09-12T08:50:14;20.50;68.80
9544;DHT22;30418;51.45933468;7.33152330;2022-09-12T08:52:55;20.50;68.80
9544;DHT22;30418;51.45933468;7.33152330;2022-09-12T08:55:32;20.50;68.80
9544;DHT22;30418;51.45933468;7.33152330;2022-09-12T08:58:10;20.60;68.80
9544;DHT22;30418;51.45933468;7.33152330;2022-09-12T09:00:49;20.60;68.70
9544;DHT22;30418;51.45933468;7.33152330;2022-09-12T09:03:52;20.60;68.60
9544;DHT22;30418;51.45933468;7.33152330;2022-09-12T09:06:50;20.70;68.60
9544;DHT22;30418;51.45933468;7.33152330;2022-09-12T09:09:36;20.80;68.70
9544;DHT22;30418;51.45933468;7.33152330;2022-09-12T09:12:15;20.80;68.90
9544;DHT22;30418;51.45933468;7.33152330;2022-09-12T09:15:02;20.90;68.80
9544;DHT22;30418;51.45933468;7.33152330;2022-09-12T09:17:40;20.90;68.70
9544;DHT22;30418;51.45933468;7.33152330;2022-09-12T09:20:16;20.90;68.70
9544;DHT22;30418;51.45933468;7.33152330;2022-09-12T09:22:53;21.00;68.70
9544;DHT22;30418;51.45933468;7.33152330;2022-09-12T09:25:28;21.00;68.60
9544;DHT22;30418;51.45933468;7.33152330;2022-09-12T09:28:13;21.00;68.50
9544;DHT22;30418;51.45933468;7.33152330;2022-09-12T09:30:45;21.10;68.60
9544;DHT22;30418;51.45933468;7.33152330;2022-09-12T09:33:20;21.10;68.70
9544;DHT22;30418;51.45933468;7.33152330;2022-09-12T09:35:55;21.20;68.80
9544;DHT22;30418;51.45933468;7.33152330;2022-09-12T09:38:36;21.20;68.60
9544;DHT22;30418;51.45933468;7.33152330;2022-09-12T09:41:19;21.20;68.50
9544;DHT22;30418;51.45933468;7.33152330;2022-09-12T09:43:53;21.30;68.60
9544;DHT22;30418;51.45933468;7.33152330;2022-09-12T09:46:22;21.40;68.70
9544;DHT22;30418;51.45933468;7.33152330;2022-09-12T09:48:52;21.40;68.60
9544;DHT22;30418;51.45933468;7.33152330;2022-09-12T09:51:25;21.40;68.70
9544;DHT22;30418;51.45933468;7.33152330;2022-09-12T09:53:57;21.50;68.60
9544;DHT22;30418;51.45933468;7.33152330;2022-09-12T09:56:33;21.50;68.40
9544;DHT22;30418;51.45933468;7.33152330;2022-09-12T09:59:10;21.60;68.40
9544;DHT22;30418;51.45933468;7.33152330;2022-09-12T10:01:44;21.60;68.10
9544;DHT22;30418;51.45933468;7.33152330;2022-09-12T10:04:20;21.60;67.90
9544;DHT22;30418;51.45933468;7.33152330;2022-09-12T10:06:53;21.70;67.80
9544;DHT22;30418;51.45933468;7.33152330;2022-09-12T10:09:25;21.70;67.70
9544;DHT22;30418;51.45933468;7.33152330;2022-09-12T10:11:57;21.80;67.90
9544;DHT22;30418;51.45933468;7.33152330;2022-09-12T10:14:29;21.80;67.70
9544;DHT22;30418;51.45933468;7.33152330;2022-09-12T10:17:24;21.90;67.50
9544;DHT22;30418;51.45933468;7.33152330;2022-09-12T10:20:01;21.90;66.90
9544;DHT22;30418;51.45933468;7.33152330;2022-09-12T10:22:48;22.00;67.30
9544;DHT22;30418;51.45933468;7.33152330;2022-09-12T10:25:18;22.10;67.10
9544;DHT22;30418;51.45933468;7.33152330;2022-09-12T10:27:54;22.10;66.90
9544;DHT22;30418;51.45933468;7.33152330;2022-09-12T10:30:25;22.10;66.50
9544;DHT22;30418;51.45933468;7.33152330;2022-09-12T10:33:03;22.20;66.70
9544;DHT22;30418;51.45933468;7.33152330;2022-09-12T10:35:43;22.20;66.40
9544;DHT22;30418;51.45933468;7.33152330;2022-09-12T10:38:16;22.20;66.20
9544;DHT22;30418;51.45933468;7.33152330;2022-09-12T10:40:56;22.30;66.30
9544;DHT22;30418;51.45933468;7.33152330;2022-09-12T10:43:29;22.30;66.20
9544;DHT22;30418;51.45933468;7.33152330;2022-09-12T10:46:27;22.40;65.90
9544;DHT22;30418;51.45933468;7.33152330;2022-09-12T10:49:22;22.40;65.50
9544;DHT22;30418;51.45933468;7.33152330;2022-09-12T10:51:53;22.50;65.30
9544;DHT22;30418;51.45933468;7.33152330;2022-09-12T10:54:26;22.60;66.00
9544;DHT22;30418;51.45933468;7.33152330;2022-09-12T11:00:12;22.70;65.20
9544;DHT22;30418;51.45933468;7.33152330;2022-09-12T11:02:50;22.80;65.20
9544;DHT22;30418;51.45933468;7.33152330;2022-09-12T11:05:37;22.80;64.70
9544;DHT22;30418;51.45933468;7.33152330;2022-09-12T11:08:50;22.90;64.70
9544;DHT22;30418;51.45933468;7.33152330;2022-09-12T11:11:53;22.90;64.40
9544;DHT22;30418;51.45933468;7.33152330;2022-09-12T11:14:37;23.00;64.00
9544;DHT22;30418;51.45933468;7.33152330;2022-09-12T11:17:25;23.10;64.50
9544;DHT22;30418;51.45933468;7.33152330;2022-09-12T11:20:19;23.20;64.40
9544;DHT22;30418;51.45933468;7.33152330;2022-09-12T11:23:25;23.30;64.10
9544;DHT22;30418;51.45933468;7.33152330;2022-09-12T11:26:18;23.30;63.40
9544;DHT22;30418;51.45933468;7.33152330;2022-09-12T11:29:00;23.40;63.80
9544;DHT22;30418;51.45933468;7.33152330;2022-09-12T11:31:45;23.40;63.60
9544;DHT22;30418;51.45933468;7.33152330;2022-09-12T11:34:34;23.50;63.40
9544;DHT22;30418;51.45933468;7.33152330;2022-09-12T11:37:19;23.60;63.40
9544;DHT22;30418;51.45933468;7.33152330;2022-09-12T11:39:56;23.60;62.90
9544;DHT22;30418;51.45933468;7.33152330;2022-09-12T11:42:32;23.70;63.10
9544;DHT22;30418;51.45933468;7.33152330;2022-09-12T11:45:12;23.70;62.80
9544;DHT22;30418;51.45933468;7.33152330;2022-09-12T11:47:44;23.80;62.20
9544;DHT22;30418;51.45933468;7.33152330;2022-09-12T11:50:20;23.80;62.30
9544;DHT22;30418;51.45933468;7.33152330;2022-09-12T11:52:53;23.90;61.90
9544;DHT22;30418;51.45933468;7.33152330;2022-09-12T11:55:26;24.00;62.10
9544;DHT22;30418;51.45933468;7.33152330;2022-09-12T11:57:58;24.00;61.70
9544;DHT22;30418;51.45933468;7.33152330;2022-09-12T12:00:31;24.00;61.80
9544;DHT22;30418;51.45933468;7.33152330;2022-09-12T12:03:07;24.10;61.00
9544;DHT22;30418;51.45933468;7.33152330;2022-09-12T12:05:45;24.10;61.10
9544;DHT22;30418;51.45933468;7.33152330;2022-09-12T12:08:20;24.10;60.60
9544;DHT22;30418;51.45933468;7.33152330;2022-09-12T12:10:54;24.10;61.10
9544;DHT22;30418;51.45933468;7.33152330;2022-09-12T12:13:27;24.10;60.60
9544;DHT22;30418;51.45933468;7.33152330;2022-09-12T12:16:00;24.20;60.60
9544;DHT22;30418;51.45933468;7.33152330;2022-09-12T12:18:32;24.30;60.40
9544;DHT22;30418;51.45933468;7.33152330;2022-09-12T12:21:40;24.30;60.40
9544;DHT22;30418;51.45933468;7.33152330;2022-09-12T12:24:19;24.30;59.40
9544;DHT22;30418;51.45933468;7.33152330;2022-09-12T12:26:58;24.30;59.60
9544;DHT22;30418;51.45933468;7.33152330;2022-09-12T12:29:39;24.40;59.60
9544;DHT22;30418;51.45933468;7.33152330;2022-09-12T12:32:24;24.40;59.60
9544;DHT22;30418;51.45933468;7.33152330;2022-09-12T12:38:28;24.50;58.90
9544;DHT22;30418;51.45933468;7.33152330;2022-09-12T12:44:48;24.60;58.80
9544;DHT22;30418;51.45933468;7.33152330;2022-09-12T12:47:20;24.60;58.80
9544;DHT22;30418;51.45933468;7.33152330;2022-09-12T12:49:53;24.60;59.20
9544;DHT22;30418;51.45933468;7.33152330;2022-09-12T12:52:24;24.70;59.80
9544;DHT22;30418;51.45933468;7.33152330;2022-09-12T12:54:58;24.70;58.90
9544;DHT22;30418;51.45933468;7.33152330;2022-09-12T13:00:28;24.80;58.70
9544;DHT22;30418;51.45933468;7.33152330;2022-09-12T13:03:05;24.80;58.10
9544;DHT22;30418;51.45933468;7.33152330;2022-09-12T13:05:40;24.80;58.50
9544;DHT22;30418;51.45933468;7.33152330;2022-09-12T13:08:26;24.90;58.20
9544;DHT22;30418;51.45933468;7.33152330;2022-09-12T13:11:01;24.90;57.60
9544;DHT22;30418;51.45933468;7.33152330;2022-09-12T13:13:40;24.90;58.00
9544;DHT22;30418;51.45933468;7.33152330;2022-09-12T13:16:28;25.00;58.10
9544;DHT22;30418;51.45933468;7.33152330;2022-09-12T13:19:04;25.00;56.90
9544;DHT22;30418;51.45933468;7.33152330;2022-09-12T13:21:34;25.00;57.80
9544;DHT22;30418;51.45933468;7.33152330;2022-09-12T13:24:11;25.10;58.00
9544;DHT22;30418;51.45933468;7.33152330;2022-09-12T13:26:47;25.20;57.80
9544;DHT22;30418;51.45933468;7.33152330;2022-09-12T13:29:18;25.20;57.00
9544;DHT22;30418;51.45933468;7.33152330;2022-09-12T13:31:52;25.20;57.10
9544;DHT22;30418;51.45933468;7.33152330;2022-09-12T13:34:24;25.30;56.90
9544;DHT22;30418;51.45933468;7.33152330;2022-09-12T13:37:24;25.40;56.90
9544;DHT22;30418;51.45933468;7.33152330;2022-09-12T13:40:04;25.40;56.50
9544;DHT22;30418;51.45933468;7.33152330;2022-09-12T13:42:46;25.50;56.90
9544;DHT22;30418;51.45933468;7.33152330;2022-09-12T13:45:20;25.50;56.40
9544;DHT22;30418;51.45933468;7.33152330;2022-09-12T13:47:51;25.60;56.80
9544;DHT22;30418;51.45933468;7.33152330;2022-09-12T13:50:27;25.60;56.40
9544;DHT22;30418;51.45933468;7.33152330;2022-09-12T13:53:00;25.60;56.00
9544;DHT22;30418;51.45933468;7.33152330;2022-09-12T13:55:33;25.60;55.90
9544;DHT22;30418;51.45933468;7.33152330;2022-09-12T13:58:15;25.70;55.80
9544;DHT22;30418;51.45933468;7.33152330;2022-09-12T14:00:59;25.70;55.20
9544;DHT22;30418;51.45933468;7.33152330;2022-09-12T14:03:31;25.70;54.70
9544;DHT22;30418;51.45933468;7.33152330;2022-09-12T14:06:24;25.80;55.30
9544;DHT22;30418;51.45933468;7.33152330;2022-09-12T14:08:54;25.80;55.10
9544;DHT22;30418;51.45933468;7.33152330;2022-09-12T14:11:29;25.80;55.10
9544;DHT22;30418;51.45933468;7.33152330;2022-09-12T14:14:04;25.90;55.00
9544;DHT22;30418;51.45933468;7.33152330;2022-09-12T14:16:37;25.90;54.70
9544;DHT22;30418;51.45933468;7.33152330;2022-09-12T14:19:07;25.90;54.70
9544;DHT22;30418;51.45933468;7.33152330;2022-09-12T14:21:38;25.90;54.80
9544;DHT22;30418;51.45933468;7.33152330;2022-09-12T14:24:10;25.90;54.90
9544;DHT22;30418;51.45933468;7.33152330;2022-09-12T14:26:42;26.00;54.60
9544;DHT22;30418;51.45933468;7.33152330;2022-09-12T14:29:14;26.00;54.40
9544;DHT22;30418;51.45933468;7.33152330;2022-09-12T14:31:44;25.90;53.80
9544;DHT22;30418;51.45933468;7.33152330;2022-09-12T14:34:15;26.00;54.30